createdAt,value
2022-12-08T00:01:42.991Z,68.87
2022-12-08T00:04:10.833Z,69.63
2022-12-08T00:07:00.461Z,73.77
2022-12-08T00:09:39.663Z,72.57
2022-12-08T00:12:16.414Z,70.90
2022-12-08T00:14:44.505Z,68.67
2022-12-08T00:17:12.832Z,67.13
2022-12-08T00:19:39.943Z,61.43
2022-12-08T00:22:07.568Z,58.87
2022-12-08T00:24:35.532Z,61.10
2022-12-08T00:27:02.947Z,62.07
2022-12-08T00:29:30.052Z,55.27
2022-12-08T00:31:57.324Z,54.80
2022-12-08T00:34:24.620Z,55.57
2022-12-08T00:36:51.758Z,60.23
2022-12-08T00:39:19.051Z,57.23
2022-12-08T00:42:04.955Z,54.30
2022-12-08T00:44:32.050Z,56.87
2022-12-08T00:46:59.288Z,54.37
2022-12-08T00:49:26.772Z,53.60
2022-12-08T00:51:53.935Z,54.60
2022-12-08T00:54:21.137Z,51.63
2022-12-08T00:56:48.297Z,56.23
2022-12-08T00:59:15.868Z,56.63
2022-12-08T01:01:44.304Z,55.37
2022-12-08T01:04:12.752Z,56.60
2022-12-08T01:06:40.238Z,57.40
2022-12-08T01:09:07.813Z,53.40
2022-12-08T01:11:35.393Z,57.47
2022-12-08T01:14:02.641Z,58.27
2022-12-08T01:16:31.131Z,58.83
2022-12-08T01:18:59.291Z,62.33
2022-12-08T01:21:26.688Z,57.50
2022-12-08T01:23:53.920Z,59.40
2022-12-08T01:26:21.431Z,61.00
2022-12-08T01:28:48.826Z,59.33
2022-12-08T01:31:17.471Z,57.57
2022-12-08T01:33:44.687Z,58.37
2022-12-08T01:36:20.555Z,61.27
2022-12-08T01:38:47.661Z,62.73
2022-12-08T01:41:16.183Z,59.57
2022-12-08T01:43:55.075Z,60.53
2022-12-08T01:46:22.353Z,58.80
2022-12-08T01:48:50.334Z,59.13
2022-12-08T01:51:17.888Z,59.07
2022-12-08T01:53:45.231Z,62.57
2022-12-08T01:56:16.243Z,56.77
2022-12-08T01:58:45.863Z,57.83
2022-12-08T02:01:13.143Z,56.37
2022-12-08T02:04:09.472Z,56.33
2022-12-08T02:06:40.583Z,59.83
2022-12-08T02:09:08.029Z,56.87
2022-12-08T02:11:35.115Z,52.23
2022-12-08T02:14:02.681Z,58.47
2022-12-08T02:16:42.208Z,60.73
2022-12-08T02:19:30.703Z,53.20
2022-12-08T02:22:00.907Z,57.83
2022-12-08T02:24:46.575Z,56.80
2022-12-08T02:27:13.708Z,56.90
2022-12-08T02:29:53.505Z,56.10
2022-12-08T02:32:39.300Z,59.97
2022-12-08T02:35:15.671Z,53.13
2022-12-08T02:37:46.698Z,56.53
2022-12-08T02:40:25.382Z,53.80
2022-12-08T02:43:02.074Z,54.17
2022-12-08T02:45:31.923Z,57.90
2022-12-08T02:47:59.434Z,54.73
2022-12-08T02:50:26.841Z,57.33
2022-12-08T02:52:54.003Z,60.77
2022-12-08T02:55:21.124Z,61.73
2022-12-08T02:57:48.195Z,57.80
2022-12-08T03:00:15.819Z,58.47
2022-12-08T03:02:51.897Z,55.57
2022-12-08T03:05:37.680Z,57.07
2022-12-08T03:08:27.592Z,55.03
2022-12-08T03:11:20.989Z,56.70
2022-12-08T03:13:50.630Z,55.43
2022-12-08T03:16:20.642Z,54.53
2022-12-08T03:18:53.676Z,54.40
2022-12-08T03:21:21.215Z,56.10
2022-12-08T03:23:50.821Z,58.67
2022-12-08T03:26:26.107Z,55.57
2022-12-08T03:28:53.332Z,56.03
2022-12-08T03:31:20.721Z,55.33
2022-12-08T03:33:51.067Z,49.33
2022-12-08T03:36:18.497Z,59.90
2022-12-08T03:38:46.556Z,53.60
2022-12-08T03:41:20.093Z,54.63
2022-12-08T03:43:47.939Z,56.83
2022-12-08T03:46:15.963Z,57.00
2022-12-08T03:48:43.157Z,57.23
2022-12-08T03:51:10.752Z,57.73
2022-12-08T03:53:38.093Z,60.83
2022-12-08T03:56:06.636Z,54.07
2022-12-08T03:58:37.403Z,51.27
2022-12-08T04:01:04.840Z,46.27
2022-12-08T04:03:31.923Z,47.77
2022-12-08T04:05:59.021Z,51.03
2022-12-08T04:08:26.166Z,49.20
2022-12-08T04:10:53.335Z,49.47
2022-12-08T04:13:20.428Z,51.00
2022-12-08T04:15:47.820Z,52.63
2022-12-08T04:18:15.137Z,46.80
2022-12-08T04:20:45.890Z,49.30
2022-12-08T04:23:13.201Z,47.60
2022-12-08T04:25:40.645Z,51.53
2022-12-08T04:28:07.735Z,51.00
2022-12-08T04:30:35.124Z,53.87
2022-12-08T04:33:02.209Z,48.57
2022-12-08T04:35:29.361Z,53.03
2022-12-08T04:37:56.717Z,48.13
2022-12-08T04:40:24.126Z,47.53
2022-12-08T04:42:51.200Z,56.30
2022-12-08T04:45:18.367Z,50.33
2022-12-08T04:47:45.699Z,49.10
2022-12-08T04:50:13.135Z,50.23
2022-12-08T04:52:40.448Z,52.73
2022-12-08T04:55:07.695Z,46.67
2022-12-08T04:57:34.800Z,51.53
2022-12-08T05:00:02.230Z,52.23
2022-12-08T05:02:29.705Z,44.73
2022-12-08T05:04:56.827Z,42.50
2022-12-08T05:07:23.906Z,49.00
2022-12-08T05:09:51.000Z,42.80
2022-12-08T05:12:18.070Z,49.10
2022-12-08T05:14:45.147Z,49.73
2022-12-08T05:17:12.203Z,44.17
2022-12-08T05:19:39.285Z,41.27
2022-12-08T05:22:06.356Z,42.07
2022-12-08T05:24:33.454Z,45.23
2022-12-08T05:27:00.555Z,43.53
2022-12-08T05:29:28.180Z,48.33
2022-12-08T05:31:55.407Z,45.87
2022-12-08T05:34:22.538Z,42.30
2022-12-08T05:36:49.622Z,44.67
2022-12-08T05:39:16.694Z,45.47
2022-12-08T05:41:43.752Z,46.23
2022-12-08T05:44:10.844Z,43.77
2022-12-08T05:46:37.962Z,44.43
2022-12-08T05:49:05.116Z,41.00
2022-12-08T05:51:32.270Z,43.80
2022-12-08T05:53:59.449Z,43.47
2022-12-08T05:56:26.713Z,42.00
2022-12-08T05:58:53.928Z,38.67
2022-12-08T06:01:25.142Z,43.33
2022-12-08T06:03:52.508Z,45.50
2022-12-08T06:06:20.246Z,42.77
2022-12-08T06:08:47.377Z,39.83
2022-12-08T06:11:20.552Z,40.00
2022-12-08T06:13:47.767Z,39.53
2022-12-08T06:16:14.882Z,39.80
2022-12-08T06:18:42.132Z,41.20
2022-12-08T06:21:10.909Z,38.17
2022-12-08T06:23:38.089Z,40.13
2022-12-08T06:26:06.221Z,39.07
2022-12-08T06:28:33.750Z,39.13
2022-12-08T06:31:00.918Z,42.60
2022-12-08T06:33:28.036Z,41.73
2022-12-08T06:35:55.121Z,37.73
2022-12-08T06:38:22.200Z,38.50
2022-12-08T06:40:55.747Z,41.87
2022-12-08T06:43:23.122Z,46.87
2022-12-08T06:45:50.351Z,43.73
2022-12-08T06:48:17.574Z,40.43
2022-12-08T06:50:45.019Z,40.97
2022-12-08T06:53:13.243Z,39.57
2022-12-08T06:56:02.562Z,40.23
2022-12-08T06:58:29.708Z,40.23
2022-12-08T07:00:56.819Z,37.17
2022-12-08T07:03:24.002Z,43.90
2022-12-08T07:05:51.155Z,37.47
2022-12-08T07:08:18.323Z,37.33
2022-12-08T07:10:45.406Z,39.53
2022-12-08T07:13:12.545Z,36.60
2022-12-08T07:15:39.676Z,40.07
2022-12-08T07:18:06.777Z,37.83
2022-12-08T07:20:33.850Z,38.83
2022-12-08T07:23:00.932Z,37.93
2022-12-08T07:25:28.007Z,35.57
2022-12-08T07:27:55.090Z,35.03
2022-12-08T07:30:22.238Z,37.90
2022-12-08T07:32:49.333Z,35.23
2022-12-08T07:35:16.564Z,34.40
2022-12-08T07:37:43.635Z,34.00
2022-12-08T07:40:11.039Z,39.10
2022-12-08T07:42:38.165Z,35.53
2022-12-08T07:45:05.426Z,36.40
2022-12-08T07:47:32.534Z,36.37
2022-12-08T07:49:59.663Z,32.87
2022-12-08T07:52:26.782Z,34.80
2022-12-08T07:54:53.868Z,41.97
2022-12-08T07:57:20.938Z,37.73
2022-12-08T07:59:48.046Z,38.63
2022-12-08T08:02:24.837Z,43.13
2022-12-08T08:04:53.267Z,37.83
2022-12-08T08:07:20.497Z,35.17
2022-12-08T08:09:47.588Z,37.07
2022-12-08T08:12:31.752Z,34.27
2022-12-08T08:14:59.919Z,32.70
2022-12-08T08:17:27.096Z,34.70
2022-12-08T08:19:54.394Z,31.80
2022-12-08T08:22:21.482Z,34.13
2022-12-08T08:24:48.589Z,29.87
2022-12-08T08:27:15.828Z,32.97
2022-12-08T08:29:42.904Z,29.83
2022-12-08T08:32:10.036Z,31.00
2022-12-08T08:34:37.152Z,31.17
2022-12-08T08:37:04.563Z,33.27
2022-12-08T08:39:31.985Z,31.27
2022-12-08T08:41:59.216Z,29.37
2022-12-08T08:44:26.330Z,28.67
2022-12-08T08:46:53.547Z,27.90
2022-12-08T08:49:21.338Z,25.73
2022-12-08T08:51:48.581Z,24.40
2022-12-08T08:54:15.676Z,30.60
2022-12-08T08:56:42.746Z,31.37
2022-12-08T08:59:10.546Z,31.40
2022-12-08T09:01:37.815Z,24.20
2022-12-08T09:04:05.011Z,24.93
2022-12-08T09:06:32.285Z,29.57
2022-12-08T09:08:59.474Z,25.30
2022-12-08T09:11:26.618Z,24.57
2022-12-08T09:13:54.103Z,23.33
2022-12-08T09:16:21.923Z,23.90
2022-12-08T09:18:49.596Z,26.67
2022-12-08T09:21:22.350Z,24.00
2022-12-08T09:23:50.685Z,26.10
2022-12-08T09:26:17.838Z,24.67
2022-12-08T09:28:46.620Z,22.87
2022-12-08T09:31:14.443Z,23.73
2022-12-08T09:33:41.684Z,28.07
2022-12-08T09:36:09.279Z,21.70
2022-12-08T09:38:36.376Z,22.80
2022-12-08T09:41:05.065Z,27.03
2022-12-08T09:43:32.173Z,22.20
2022-12-08T09:45:59.638Z,22.87
2022-12-08T09:48:32.576Z,22.63
2022-12-08T09:50:59.687Z,23.00
2022-12-08T09:53:35.116Z,22.00
2022-12-08T09:56:19.804Z,22.37
2022-12-08T09:58:59.013Z,22.20
2022-12-08T10:01:33.079Z,23.17
2022-12-08T10:04:01.041Z,21.17
2022-12-08T10:06:40.345Z,25.50
2022-12-08T10:09:25.985Z,23.93
2022-12-08T10:11:56.139Z,19.53
2022-12-08T10:14:27.670Z,21.67
2022-12-08T10:16:57.114Z,23.90
2022-12-08T10:19:25.713Z,21.03
2022-12-08T10:21:53.769Z,22.83
2022-12-08T10:24:32.242Z,21.10
2022-12-08T10:26:59.801Z,21.07
2022-12-08T10:29:26.863Z,22.93
2022-12-08T10:31:54.074Z,22.03
2022-12-08T10:34:24.524Z,21.30
2022-12-08T10:36:53.206Z,28.00
2022-12-08T10:39:29.245Z,21.60
2022-12-08T10:42:01.252Z,22.80
2022-12-08T10:44:28.330Z,22.90
2022-12-08T10:46:55.521Z,24.07
2022-12-08T10:49:32.398Z,22.30
2022-12-08T10:51:59.481Z,29.40
2022-12-08T10:54:44.649Z,30.27
2022-12-08T10:57:20.500Z,21.13
2022-12-08T10:59:47.577Z,21.73
2022-12-08T11:02:21.039Z,22.83
2022-12-08T11:04:48.448Z,21.03
2022-12-08T11:07:22.075Z,23.60
2022-12-08T11:09:50.812Z,21.60
2022-12-08T11:12:19.186Z,21.13
2022-12-08T11:14:46.268Z,22.17
2022-12-08T11:17:18.427Z,22.17
2022-12-08T11:19:47.005Z,22.07
2022-12-08T11:22:24.995Z,20.00
2022-12-08T11:24:59.952Z,22.93
2022-12-08T11:27:27.321Z,22.77
2022-12-08T11:29:54.460Z,22.60
2022-12-08T11:32:22.007Z,18.93
2022-12-08T11:35:01.347Z,26.20
2022-12-08T11:37:35.427Z,26.73
2022-12-08T11:40:05.719Z,21.93
2022-12-08T11:42:36.511Z,21.00
2022-12-08T11:45:07.149Z,21.97
2022-12-08T11:48:06.789Z,24.20
2022-12-08T11:51:00.207Z,20.77
2022-12-08T11:53:30.973Z,20.87
2022-12-08T11:55:59.160Z,19.57
2022-12-08T11:58:30.004Z,21.97
2022-12-08T12:00:57.998Z,20.23
2022-12-08T12:03:42.606Z,22.87
2022-12-08T12:06:53.187Z,21.53
2022-12-08T12:09:31.387Z,24.90
2022-12-08T12:12:13.638Z,22.97
2022-12-08T12:14:58.995Z,22.07
2022-12-08T12:17:26.066Z,21.97
2022-12-08T12:19:54.352Z,23.40
2022-12-08T12:22:22.627Z,28.00
2022-12-08T12:24:51.038Z,23.07
2022-12-08T12:27:28.624Z,20.53
2022-12-08T12:29:58.963Z,24.67
2022-12-08T12:32:26.867Z,24.23
2022-12-08T12:34:55.782Z,23.23
2022-12-08T12:37:25.078Z,24.27
2022-12-08T12:40:03.189Z,24.43
2022-12-08T12:42:38.797Z,22.80
2022-12-08T12:45:17.861Z,22.27
2022-12-08T12:47:51.020Z,21.90
2022-12-08T12:50:34.983Z,23.40
2022-12-08T12:53:07.915Z,21.83
2022-12-08T12:55:46.970Z,25.37
2022-12-08T12:58:31.962Z,22.83
2022-12-08T13:01:11.514Z,24.03
2022-12-08T13:03:39.714Z,21.50
2022-12-08T13:06:11.395Z,22.27
2022-12-08T13:08:42.966Z,24.13
2022-12-08T13:11:10.772Z,22.07
2022-12-08T13:13:38.577Z,20.10
2022-12-08T13:16:19.068Z,23.73
2022-12-08T13:18:51.618Z,19.57
2022-12-08T13:21:23.048Z,21.87
2022-12-08T13:23:50.147Z,18.47
2022-12-08T13:26:27.041Z,19.30
2022-12-08T13:29:01.322Z,20.17
2022-12-08T13:31:37.525Z,18.03
2022-12-08T13:34:08.400Z,18.67
2022-12-08T13:36:40.720Z,19.63
2022-12-08T13:39:08.068Z,18.83
2022-12-08T13:41:43.758Z,20.03
2022-12-08T13:47:32.015Z,21.50
2022-12-08T13:59:08.191Z,19.50
2022-12-08T14:01:40.560Z,22.33
2022-12-08T14:04:37.530Z,16.87
2022-12-08T14:07:02.540Z,17.83
2022-12-08T14:09:33.842Z,19.13
2022-12-08T14:12:06.572Z,20.20
2022-12-08T14:17:23.231Z,17.00
2022-12-08T14:20:00.573Z,20.27
2022-12-08T14:22:38.558Z,19.23
2022-12-08T14:25:06.944Z,19.77
2022-12-08T14:27:38.268Z,19.70
2022-12-08T14:30:16.431Z,17.17
2022-12-08T14:33:03.811Z,18.47
2022-12-08T14:35:32.238Z,17.73
2022-12-08T14:38:03.983Z,19.97
2022-12-08T14:40:35.305Z,19.60
2022-12-08T14:43:13.490Z,17.83
2022-12-08T14:45:43.570Z,18.33
2022-12-08T14:48:22.667Z,19.03
2022-12-08T14:50:58.066Z,19.93
2022-12-08T14:53:25.686Z,18.47
2022-12-08T14:55:53.039Z,17.40
2022-12-08T14:58:27.670Z,18.80
2022-12-08T15:00:58.331Z,18.63
2022-12-08T15:03:30.082Z,19.23
2022-12-08T15:05:58.389Z,18.63
2022-12-08T15:08:25.552Z,18.90
2022-12-08T15:11:11.632Z,18.40
2022-12-08T15:13:44.577Z,16.57
2022-12-08T15:16:32.013Z,19.13
2022-12-08T15:19:03.851Z,18.80
2022-12-08T15:21:33.239Z,19.20
2022-12-08T15:24:00.333Z,20.13
2022-12-08T15:26:28.265Z,19.97
2022-12-08T15:28:55.889Z,19.10
2022-12-08T15:31:23.100Z,19.47
2022-12-08T15:33:50.254Z,22.97
2022-12-08T15:36:17.390Z,21.00
2022-12-08T15:38:44.502Z,19.10
2022-12-08T15:41:14.851Z,21.93
2022-12-08T15:43:42.565Z,22.53
2022-12-08T15:46:09.752Z,19.23
2022-12-08T15:48:37.978Z,22.67
2022-12-08T15:51:05.141Z,22.77
2022-12-08T15:53:32.276Z,22.13
2022-12-08T15:58:56.473Z,20.60
2022-12-08T16:01:24.669Z,21.43
2022-12-08T16:09:30.513Z,22.37
2022-12-08T16:12:21.238Z,24.73
2022-12-08T16:17:35.950Z,19.50
2022-12-08T16:20:03.402Z,21.40
2022-12-08T16:25:20.723Z,20.47
2022-12-08T16:30:36.840Z,20.43
2022-12-08T16:33:04.038Z,21.90
2022-12-08T16:35:31.286Z,21.63
2022-12-08T16:37:58.419Z,20.23
2022-12-08T16:40:25.616Z,20.43
2022-12-08T16:42:52.994Z,18.37
2022-12-08T16:45:27.919Z,20.80
2022-12-08T16:47:56.627Z,20.60
2022-12-08T16:50:23.696Z,19.20
2022-12-08T16:52:51.338Z,20.37
2022-12-08T16:55:19.403Z,19.97
2022-12-08T16:57:47.277Z,21.50
2022-12-08T17:00:24.421Z,21.27
2022-12-08T17:02:52.991Z,21.23
2022-12-08T17:05:21.091Z,20.70
2022-12-08T17:07:49.861Z,19.33
2022-12-08T17:10:19.057Z,22.10
2022-12-08T17:12:46.614Z,20.20
2022-12-08T17:15:14.668Z,21.20
2022-12-08T17:17:42.294Z,17.47
2022-12-08T17:20:12.330Z,18.47
2022-12-08T17:22:39.467Z,16.60
2022-12-08T17:25:06.872Z,16.37
2022-12-08T17:27:34.250Z,17.13
2022-12-08T17:30:01.334Z,14.67
2022-12-08T17:32:28.503Z,17.80
2022-12-08T17:34:55.699Z,16.63
2022-12-08T17:37:22.801Z,16.23
2022-12-08T17:39:49.914Z,16.93
2022-12-08T17:42:17.019Z,19.07
2022-12-08T17:44:46.531Z,16.57
2022-12-08T17:47:13.670Z,16.57
2022-12-08T17:49:40.799Z,17.43
2022-12-08T17:52:08.044Z,18.67
2022-12-08T17:54:36.429Z,18.67
2022-12-08T17:57:03.840Z,15.70
2022-12-08T17:59:31.123Z,19.67
2022-12-08T18:01:58.486Z,18.80
2022-12-08T18:04:26.026Z,17.47
2022-12-08T18:06:53.149Z,16.40
2022-12-08T18:09:20.361Z,16.70
2022-12-08T18:11:47.708Z,15.87
2022-12-08T18:14:15.147Z,20.17
2022-12-08T18:16:44.232Z,24.73
2022-12-08T18:19:12.041Z,17.80
2022-12-08T18:21:39.323Z,19.47
2022-12-08T18:24:06.701Z,19.07
2022-12-08T18:26:33.897Z,18.93
2022-12-08T18:29:01.084Z,21.70
2022-12-08T18:31:28.384Z,17.67
2022-12-08T18:33:55.591Z,29.33
2022-12-08T18:36:25.123Z,23.33
2022-12-08T18:38:53.235Z,23.10
2022-12-08T18:41:26.149Z,19.30
2022-12-08T18:43:54.050Z,21.03
2022-12-08T18:46:21.348Z,24.63
2022-12-08T18:48:49.835Z,21.47
2022-12-08T18:51:18.429Z,20.97
2022-12-08T18:53:46.132Z,23.17
2022-12-08T18:56:24.044Z,23.03
2022-12-08T18:58:51.166Z,22.80
2022-12-08T19:01:18.427Z,26.80
2022-12-08T19:03:58.515Z,28.83
2022-12-08T19:06:32.675Z,26.77
2022-12-08T19:08:59.794Z,27.87
2022-12-08T19:11:29.149Z,26.63
2022-12-08T19:13:56.527Z,26.83
2022-12-08T19:16:23.955Z,27.20
2022-12-08T19:18:51.298Z,24.47
2022-12-08T19:21:19.723Z,25.37
2022-12-08T19:23:47.532Z,36.50
2022-12-08T19:26:14.707Z,43.07
2022-12-08T19:28:41.838Z,48.27
2022-12-08T19:31:09.909Z,36.27
2022-12-08T19:33:37.646Z,30.80
2022-12-08T19:36:08.871Z,29.50
2022-12-08T19:38:56.045Z,28.67
2022-12-08T19:41:41.862Z,30.53
2022-12-08T19:44:36.538Z,26.43
2022-12-08T19:47:04.106Z,27.67
2022-12-08T19:49:31.300Z,27.97
2022-12-08T19:51:58.482Z,27.07
2022-12-08T19:54:25.813Z,27.43
2022-12-08T19:56:52.977Z,28.93
2022-12-08T19:59:20.421Z,29.73
2022-12-08T20:01:51.358Z,25.93
2022-12-08T20:04:18.571Z,33.57
2022-12-08T20:06:46.098Z,28.17
2022-12-08T20:09:13.565Z,25.70
2022-12-08T20:11:41.140Z,27.60
2022-12-08T20:14:08.336Z,28.40
2022-12-08T20:16:35.922Z,25.27
2022-12-08T20:19:03.553Z,27.53
2022-12-08T20:21:30.975Z,31.57
2022-12-08T20:23:58.132Z,25.87
2022-12-08T20:26:25.282Z,27.83
2022-12-08T20:28:52.760Z,28.20
2022-12-08T20:31:28.172Z,26.13
2022-12-08T20:33:55.598Z,26.23
2022-12-08T20:36:23.353Z,23.43
2022-12-08T20:38:51.784Z,26.57
2022-12-08T20:41:19.351Z,22.97
2022-12-08T20:43:47.405Z,25.13
2022-12-08T20:46:15.626Z,25.87
2022-12-08T20:48:43.576Z,28.10
2022-12-08T20:51:13.423Z,29.03
2022-12-08T20:53:40.502Z,28.67
2022-12-08T20:56:07.910Z,32.50
2022-12-08T20:58:35.056Z,27.20
2022-12-08T21:01:02.401Z,31.47
2022-12-08T21:03:29.727Z,30.70
2022-12-08T21:05:57.142Z,43.17
2022-12-08T21:08:25.962Z,41.83
2022-12-08T21:10:53.896Z,41.43
2022-12-08T21:13:21.235Z,37.53
2022-12-08T21:15:48.775Z,42.47
2022-12-08T21:18:17.049Z,39.03
2022-12-08T21:20:44.862Z,40.73
2022-12-08T21:23:12.351Z,36.57
2022-12-08T21:25:43.363Z,37.43
2022-12-08T21:28:10.583Z,37.67
2022-12-08T21:30:39.808Z,36.13
2022-12-08T21:33:07.228Z,37.07
2022-12-08T21:35:34.526Z,34.60
2022-12-08T21:38:02.539Z,31.33
2022-12-08T21:40:29.671Z,32.10
2022-12-08T21:42:56.940Z,30.13
2022-12-08T21:45:24.216Z,30.10
2022-12-08T21:47:51.624Z,31.67
2022-12-08T21:50:19.018Z,33.07
2022-12-08T21:52:47.616Z,32.13
2022-12-08T21:55:15.723Z,30.83
2022-12-08T21:57:43.497Z,30.23
2022-12-08T22:00:14.036Z,35.00
2022-12-08T22:02:41.372Z,32.87
2022-12-08T22:05:08.877Z,30.80
2022-12-08T22:07:38.809Z,32.87
2022-12-08T22:10:07.659Z,31.07
2022-12-08T22:12:35.908Z,31.20
2022-12-08T22:15:05.711Z,33.10
2022-12-08T22:17:36.426Z,32.57
2022-12-08T22:20:04.737Z,32.97
2022-12-08T22:22:33.674Z,32.80
2022-12-08T22:25:01.146Z,30.50
2022-12-08T22:27:28.307Z,30.00
2022-12-08T22:29:55.373Z,36.93
2022-12-08T22:32:22.801Z,32.70
2022-12-08T22:34:49.925Z,35.87
2022-12-08T22:37:17.160Z,33.53
2022-12-08T22:39:44.376Z,33.83
2022-12-08T22:42:11.644Z,38.67
2022-12-08T22:44:38.730Z,36.70
2022-12-08T22:47:05.910Z,32.23
2022-12-08T22:49:33.528Z,43.27
2022-12-08T22:52:00.565Z,50.27
2022-12-08T22:54:27.701Z,45.00
2022-12-08T22:56:55.259Z,43.03
2022-12-08T22:59:22.467Z,36.17
2022-12-08T23:01:49.621Z,38.67
2022-12-08T23:04:18.357Z,34.87
2022-12-08T23:06:45.719Z,46.43
2022-12-08T23:09:12.981Z,35.60
2022-12-08T23:11:40.641Z,37.27
2022-12-08T23:14:08.219Z,37.63
2022-12-08T23:16:35.431Z,37.83
2022-12-08T23:19:02.719Z,40.50
2022-12-08T23:21:29.857Z,36.23
2022-12-08T23:23:57.228Z,35.37
2022-12-08T23:26:26.739Z,39.47
2022-12-08T23:28:54.511Z,41.53
2022-12-08T23:31:21.726Z,39.97
2022-12-08T23:33:49.437Z,35.47
2022-12-08T23:36:17.829Z,39.30
2022-12-08T23:38:45.131Z,37.97
2022-12-08T23:41:14.277Z,41.37
2022-12-08T23:43:46.379Z,40.90
2022-12-08T23:46:14.403Z,39.87
2022-12-08T23:48:42.151Z,37.63
2022-12-08T23:51:09.476Z,39.37
2022-12-08T23:53:36.800Z,41.77
2022-12-08T23:56:08.262Z,42.27
2022-12-08T23:58:35.763Z,38.10
